createdAt,value
2023-03-18T00:01:07.175Z,100315.41
2023-03-18T00:03:37.320Z,100320.03
2023-03-18T00:06:05.168Z,100314.38
2023-03-18T00:08:32.829Z,100306.69
2023-03-18T00:10:59.235Z,100306.47
2023-03-18T00:13:25.970Z,100309.97
2023-03-18T00:15:52.702Z,100311.84
2023-03-18T00:18:20.064Z,100314.56
2023-03-18T00:20:46.507Z,100320.00
2023-03-18T00:23:13.011Z,100320.25
2023-03-18T00:25:39.583Z,100322.44
2023-03-18T00:28:07.491Z,100321.69
2023-03-18T00:30:37.761Z,100320.31
2023-03-18T00:33:05.166Z,100332.84
2023-03-18T00:35:32.238Z,100326.63
2023-03-18T00:37:58.882Z,100331.81
2023-03-18T00:40:42.843Z,100324.50
2023-03-18T00:43:10.995Z,100333.25
2023-03-18T00:45:38.667Z,100327.53
2023-03-18T00:48:05.270Z,100332.72
2023-03-18T00:50:32.062Z,100340.34
2023-03-18T00:52:59.494Z,100336.28
2023-03-18T00:55:27.425Z,100339.78
2023-03-18T00:57:54.668Z,100342.22
2023-03-18T01:00:21.411Z,100347.63
2023-03-18T01:02:49.222Z,100359.75
2023-03-18T01:05:16.430Z,100353.72
2023-03-18T01:07:43.598Z,100355.66
2023-03-18T01:10:12.603Z,100360.00
2023-03-18T01:12:41.109Z,100348.91
2023-03-18T01:15:12.683Z,100350.78
2023-03-18T01:17:39.375Z,100350.78
2023-03-18T01:20:07.236Z,100338.06
2023-03-18T01:22:33.653Z,100338.03
2023-03-18T01:25:00.123Z,100346.50
2023-03-18T01:27:34.442Z,100340.81
2023-03-18T01:30:00.934Z,100339.75
2023-03-18T01:32:28.779Z,100341.63
2023-03-18T01:34:55.504Z,100355.13
2023-03-18T01:39:55.863Z,100355.16
2023-03-18T01:42:23.822Z,100355.75
2023-03-18T01:44:50.703Z,100351.16
2023-03-18T01:47:17.401Z,100359.38
2023-03-18T01:49:52.281Z,100354.22
2023-03-18T01:52:27.526Z,100345.59
2023-03-18T01:55:05.388Z,100350.53
2023-03-18T01:57:33.476Z,100348.94
2023-03-18T02:00:00.636Z,100354.66
2023-03-18T02:02:30.033Z,100355.97
2023-03-18T02:05:01.731Z,100349.41
2023-03-18T02:07:35.922Z,100353.22
2023-03-18T02:12:38.481Z,100352.50
2023-03-18T02:15:13.819Z,100357.13
2023-03-18T02:17:45.081Z,100347.34
2023-03-18T02:20:38.628Z,100347.69
2023-03-18T02:23:25.625Z,100349.59
2023-03-18T02:25:59.263Z,100347.44
2023-03-18T02:28:29.780Z,100343.63
2023-03-18T02:31:03.985Z,100338.22
2023-03-18T02:33:38.724Z,100357.50
2023-03-18T02:36:11.335Z,100354.81
2023-03-18T02:38:42.907Z,100359.16
2023-03-18T02:41:19.363Z,100362.41
2023-03-18T02:43:47.403Z,100356.44
2023-03-18T02:46:32.382Z,100362.97
2023-03-18T02:49:02.629Z,100364.91
2023-03-18T02:51:30.454Z,100361.63
2023-03-18T02:54:03.226Z,100366.53
2023-03-18T02:56:30.111Z,100368.72
2023-03-18T02:58:57.785Z,100373.31
2023-03-18T03:01:24.841Z,100374.38
2023-03-18T03:03:51.852Z,100367.06
2023-03-18T03:06:18.401Z,100367.88
2023-03-18T03:08:45.641Z,100366.81
2023-03-18T03:11:12.642Z,100367.34
2023-03-18T03:13:42.573Z,100369.25
2023-03-18T03:16:12.200Z,100374.66
2023-03-18T03:18:39.070Z,100374.09
2023-03-18T03:21:06.539Z,100375.19
2023-03-18T03:23:33.451Z,100371.69
2023-03-18T03:26:00.168Z,100371.44
2023-03-18T03:28:28.613Z,100372.50
2023-03-18T03:30:55.773Z,100375.75
2023-03-18T03:33:22.883Z,100374.69
2023-03-18T03:35:49.634Z,100374.41
2023-03-18T03:38:16.157Z,100382.84
2023-03-18T03:40:43.542Z,100378.47
2023-03-18T03:43:13.160Z,100367.09
2023-03-18T03:45:41.885Z,100366.28
2023-03-18T03:48:09.041Z,100369.53
2023-03-18T03:50:37.626Z,100372.53
2023-03-18T03:53:04.924Z,100373.88
2023-03-18T03:55:31.740Z,100373.63
2023-03-18T03:57:58.273Z,100371.16
2023-03-18T04:00:26.603Z,100370.63
2023-03-18T04:02:54.186Z,100388.25
2023-03-18T04:05:24.485Z,100382.25
2023-03-18T04:07:52.268Z,100383.06
2023-03-18T04:10:23.639Z,100385.78
2023-03-18T04:12:50.437Z,100387.66
2023-03-18T04:15:19.638Z,100392.56
2023-03-18T04:17:49.394Z,100392.84
2023-03-18T04:20:18.690Z,100393.09
2023-03-18T04:22:46.649Z,100392.03
2023-03-18T04:25:16.856Z,100385.22
2023-03-18T04:27:43.950Z,100392.00
2023-03-18T04:30:13.920Z,100392.84
2023-03-18T04:32:56.767Z,100392.56
2023-03-18T04:35:23.503Z,100401.47
2023-03-18T04:37:50.741Z,100401.50
2023-03-18T04:40:18.315Z,100397.47
2023-03-18T04:42:47.667Z,100399.59
2023-03-18T04:45:16.246Z,100393.63
2023-03-18T04:47:45.387Z,100398.25
2023-03-18T04:50:14.209Z,100392.03
2023-03-18T04:52:42.692Z,100392.56
2023-03-18T04:55:14.025Z,100391.72
2023-03-18T04:57:42.527Z,100397.72
2023-03-18T05:00:17.243Z,100400.72
2023-03-18T05:02:45.967Z,100400.97
2023-03-18T05:05:12.879Z,100399.06
2023-03-18T05:07:45.233Z,100404.47
2023-03-18T05:10:14.638Z,100396.59
2023-03-18T05:12:42.077Z,100396.34
2023-03-18T05:15:12.147Z,100394.19
2023-03-18T05:17:43.100Z,100397.44
2023-03-18T05:20:10.675Z,100395.84
2023-03-18T05:22:37.557Z,100396.94
2023-03-18T05:25:13.067Z,100400.72
2023-03-18T05:27:40.509Z,100412.13
2023-03-18T05:30:15.358Z,100417.56
2023-03-18T05:32:45.701Z,100425.72
2023-03-18T05:35:13.837Z,100425.72
2023-03-18T05:37:50.429Z,100424.88
2023-03-18T05:40:17.684Z,100420.56
2023-03-18T05:42:57.285Z,100421.91
2023-03-18T05:45:33.701Z,100428.72
2023-03-18T05:48:00.502Z,100427.88
2023-03-18T05:50:35.510Z,100428.97
2023-03-18T05:53:06.213Z,100430.31
2023-03-18T05:55:36.647Z,100429.78
2023-03-18T05:58:03.910Z,100426.78
2023-03-18T06:00:32.401Z,100437.09
2023-03-18T06:03:01.717Z,100431.41
2023-03-18T06:05:29.784Z,100428.69
2023-03-18T06:07:56.977Z,100434.38
2023-03-18T06:10:25.177Z,100427.84
2023-03-18T06:12:52.533Z,100443.06
2023-03-18T06:15:19.431Z,100440.31
2023-03-18T06:17:47.222Z,100440.31
2023-03-18T06:20:15.632Z,100443.31
2023-03-18T06:22:43.896Z,100434.09
2023-03-18T06:25:10.830Z,100443.03
2023-03-18T06:27:39.224Z,100444.13
2023-03-18T06:30:06.884Z,100445.47
2023-03-18T06:32:35.743Z,100449.00
2023-03-18T06:35:02.330Z,100447.66
2023-03-18T06:37:30.502Z,100459.84
2023-03-18T06:39:56.966Z,100465.81
2023-03-18T06:42:23.525Z,100472.84
2023-03-18T06:44:59.907Z,100474.75
2023-03-18T06:47:40.057Z,100468.78
2023-03-18T06:50:07.387Z,100473.94
2023-03-18T06:52:37.287Z,100471.47
2023-03-18T06:55:11.534Z,100478.56
2023-03-18T06:57:41.482Z,100486.94
2023-03-18T07:00:10.503Z,100481.50
2023-03-18T07:02:39.529Z,100484.19
2023-03-18T07:05:08.708Z,100492.03
2023-03-18T07:07:39.936Z,100493.88
2023-03-18T07:10:08.835Z,100496.84
2023-03-18T07:12:36.005Z,100495.97
2023-03-18T07:15:03.401Z,100509.50
2023-03-18T07:17:29.821Z,100505.41
2023-03-18T07:19:57.174Z,100505.09
2023-03-18T07:22:24.619Z,100503.97
2023-03-18T07:24:52.294Z,100512.13
2023-03-18T07:27:18.698Z,100516.75
2023-03-18T07:29:45.130Z,100508.03
2023-03-18T07:32:11.664Z,100517.78
2023-03-18T07:34:38.104Z,100518.34
2023-03-18T07:37:04.546Z,100515.63
2023-03-18T07:39:31.792Z,100513.94
2023-03-18T07:41:58.259Z,100524.75
2023-03-18T07:44:29.303Z,100522.53
2023-03-18T07:46:55.904Z,100535.81
2023-03-18T07:49:23.733Z,100540.84
2023-03-18T07:51:50.327Z,100541.56
2023-03-18T07:54:17.949Z,100539.50
2023-03-18T07:56:44.565Z,100545.00
2023-03-18T07:59:12.277Z,100548.44
2023-03-18T08:01:39.834Z,100560.63
2023-03-18T08:04:06.583Z,100560.16
2023-03-18T08:06:34.336Z,100565.50
2023-03-18T08:09:02.590Z,100566.81
2023-03-18T08:11:29.168Z,100566.44
2023-03-18T08:13:55.715Z,100567.50
2023-03-18T08:16:22.973Z,100565.34
2023-03-18T08:18:49.471Z,100569.16
2023-03-18T08:21:16.105Z,100561.00
2023-03-18T08:23:42.763Z,100569.16
2023-03-18T08:26:09.755Z,100577.22
2023-03-18T08:28:36.748Z,100576.66
2023-03-18T08:31:04.907Z,100565.34
2023-03-18T08:33:31.682Z,100581.94
2023-03-18T08:35:59.269Z,100576.59
2023-03-18T08:38:26.003Z,100581.75
2023-03-18T08:40:52.473Z,100577.88
2023-03-18T08:43:22.078Z,100582.25
2023-03-18T08:45:54.850Z,100595.94
2023-03-18T08:48:22.768Z,100589.09
2023-03-18T08:50:49.540Z,100587.53
2023-03-18T08:53:16.248Z,100593.75
2023-03-18T08:55:42.756Z,100588.94
2023-03-18T08:58:09.806Z,100593.59
2023-03-18T09:00:38.971Z,100582.38
2023-03-18T09:03:05.637Z,100589.28
2023-03-18T09:05:32.850Z,100588.56
2023-03-18T09:08:00.269Z,100595.56
2023-03-18T09:10:27.566Z,100603.00
2023-03-18T09:12:53.982Z,100596.00
2023-03-18T09:15:20.777Z,100608.25
2023-03-18T09:18:03.705Z,100613.88
2023-03-18T09:20:34.889Z,100617.66
2023-03-18T09:23:03.926Z,100616.59
2023-03-18T09:25:30.877Z,100612.03
2023-03-18T09:27:57.525Z,100609.75
2023-03-18T09:30:25.588Z,100626.22
2023-03-18T09:32:52.103Z,100622.44
2023-03-18T09:35:18.669Z,100628.06
2023-03-18T09:37:45.280Z,100620.00
2023-03-18T09:40:32.975Z,100626.81
2023-03-18T09:43:21.124Z,100614.91
2023-03-18T09:45:50.476Z,100632.66
2023-03-18T09:48:26.340Z,100620.75
2023-03-18T09:50:58.562Z,100627.28
2023-03-18T09:53:41.242Z,100623.72
2023-03-18T09:56:15.952Z,100630.41
2023-03-18T09:58:51.757Z,100633.16
2023-03-18T10:01:20.738Z,100631.53
2023-03-18T10:04:11.996Z,100627.34
2023-03-18T10:06:43.042Z,100629.56
2023-03-18T10:09:19.182Z,100632.41
2023-03-18T10:11:51.205Z,100637.69
2023-03-18T10:14:26.728Z,100633.44
2023-03-18T10:17:25.294Z,100636.28
2023-03-18T10:19:55.996Z,100637.06
2023-03-18T10:22:37.777Z,100644.00
2023-03-18T10:25:21.919Z,100640.09
2023-03-18T10:28:16.266Z,100647.41
2023-03-18T10:31:01.401Z,100646.44
2023-03-18T10:33:44.982Z,100651.22
2023-03-18T10:36:27.028Z,100660.13
2023-03-18T10:38:56.141Z,100659.19
2023-03-18T10:41:32.066Z,100657.75
2023-03-18T10:44:22.112Z,100661.97
2023-03-18T10:47:07.888Z,100659.59
2023-03-18T10:49:42.683Z,100657.75
2023-03-18T10:52:31.056Z,100655.13
2023-03-18T10:54:57.525Z,100657.97
2023-03-18T10:57:24.057Z,100661.78
2023-03-18T10:59:52.084Z,100662.56
2023-03-18T11:02:38.989Z,100661.66
2023-03-18T11:05:29.558Z,100661.56
2023-03-18T11:08:09.433Z,100665.47
2023-03-18T11:10:40.435Z,100663.13
2023-03-18T11:13:07.034Z,100661.28
2023-03-18T11:15:38.356Z,100665.66
2023-03-18T11:18:05.804Z,100650.84
2023-03-18T11:20:45.523Z,100670.84
2023-03-18T11:23:17.920Z,100658.00
2023-03-18T11:25:48.914Z,100662.03
2023-03-18T11:28:34.336Z,100663.69
2023-03-18T11:31:06.588Z,100659.22
2023-03-18T11:33:33.290Z,100661.78
2023-03-18T11:36:14.275Z,100669.06
2023-03-18T11:38:40.708Z,100667.44
2023-03-18T11:41:16.916Z,100668.66
2023-03-18T11:44:06.995Z,100678.47
2023-03-18T11:46:38.197Z,100671.09
2023-03-18T11:49:06.094Z,100670.25
2023-03-18T11:51:43.239Z,100672.66
2023-03-18T11:54:47.694Z,100679.03
2023-03-18T11:57:31.106Z,100676.25
2023-03-18T12:00:43.394Z,100669.59
2023-03-18T12:03:43.807Z,100672.91
2023-03-18T12:06:20.395Z,100686.75
2023-03-18T12:09:23.525Z,100672.22
2023-03-18T12:12:37.100Z,100673.38
2023-03-18T12:15:14.638Z,100670.44
2023-03-18T12:17:56.859Z,100666.72
2023-03-18T12:20:42.860Z,100679.97
2023-03-18T12:23:30.602Z,100683.69
2023-03-18T12:26:14.234Z,100674.50
2023-03-18T12:29:02.957Z,100679.63
2023-03-18T12:31:50.597Z,100674.06
2023-03-18T12:34:53.858Z,100666.59
2023-03-18T12:37:36.991Z,100669.44
2023-03-18T12:40:04.808Z,100680.00
2023-03-18T12:42:46.133Z,100676.28
2023-03-18T12:45:17.720Z,100674.06
2023-03-18T12:47:57.108Z,100679.53
2023-03-18T12:50:25.670Z,100677.66
2023-03-18T12:53:06.985Z,100668.41
2023-03-18T12:55:38.739Z,100670.91
2023-03-18T12:58:25.655Z,100665.97
2023-03-18T13:01:22.146Z,100667.94
2023-03-18T13:03:55.120Z,100659.56
2023-03-18T13:06:43.750Z,100658.47
2023-03-18T13:09:23.344Z,100663.19
2023-03-18T13:12:12.664Z,100653.38
2023-03-18T13:14:44.722Z,100656.16
2023-03-18T13:17:24.114Z,100656.66
2023-03-18T13:19:50.700Z,100660.97
2023-03-18T13:22:32.594Z,100657.28
2023-03-18T13:25:08.196Z,100657.91
2023-03-18T13:27:53.131Z,100665.69
2023-03-18T13:30:41.089Z,100670.00
2023-03-18T13:33:32.261Z,100657.47
2023-03-18T13:36:23.438Z,100652.63
2023-03-18T13:39:06.778Z,100655.09
2023-03-18T13:41:52.688Z,100649.41
2023-03-18T13:44:24.821Z,100651.59
2023-03-18T13:47:01.649Z,100642.53
2023-03-18T13:49:30.911Z,100647.09
2023-03-18T13:52:03.677Z,100647.78
2023-03-18T13:54:36.660Z,100651.34
2023-03-18T13:57:18.661Z,100656.19
2023-03-18T13:59:48.439Z,100653.31
2023-03-18T14:02:39.872Z,100649.91
2023-03-18T14:05:34.860Z,100640.47
2023-03-18T14:08:28.095Z,100642.72
2023-03-18T14:11:16.702Z,100638.66
2023-03-18T14:13:44.855Z,100634.44
2023-03-18T14:16:14.512Z,100637.97
2023-03-18T14:18:43.065Z,100635.59
2023-03-18T14:21:24.572Z,100635.78
2023-03-18T14:24:15.448Z,100638.03
2023-03-18T14:26:42.522Z,100644.53
2023-03-18T14:29:09.543Z,100637.41
2023-03-18T14:31:39.235Z,100630.59
2023-03-18T14:34:17.995Z,100629.28
2023-03-18T14:36:53.217Z,100638.84
2023-03-18T14:39:28.847Z,100635.75
2023-03-18T14:41:59.295Z,100634.09
2023-03-18T14:44:44.928Z,100631.13
2023-03-18T14:48:04.146Z,100631.66
2023-03-18T14:50:43.094Z,100621.94
2023-03-18T14:53:09.913Z,100632.72
2023-03-18T14:55:37.969Z,100622.53
2023-03-18T14:58:05.235Z,100634.47
2023-03-18T15:00:36.761Z,100632.41
2023-03-18T15:03:14.261Z,100639.16
2023-03-18T15:05:42.979Z,100631.50
2023-03-18T15:08:17.954Z,100624.72
2023-03-18T15:10:51.491Z,100636.88
2023-03-18T15:13:21.197Z,100643.84
2023-03-18T15:15:49.082Z,100632.38
2023-03-18T15:18:40.404Z,100625.41
2023-03-18T15:21:16.448Z,100628.25
2023-03-18T15:23:48.957Z,100625.97
2023-03-18T15:26:34.810Z,100628.06
2023-03-18T15:29:22.134Z,100616.94
2023-03-18T15:31:48.812Z,100621.72
2023-03-18T15:34:29.903Z,100618.31
2023-03-18T15:36:59.194Z,100620.97
2023-03-18T15:39:37.193Z,100618.34
2023-03-18T15:42:14.973Z,100612.38
2023-03-18T15:44:43.236Z,100616.75
2023-03-18T15:47:25.608Z,100618.97
2023-03-18T15:50:00.407Z,100622.69
2023-03-18T15:52:37.800Z,100618.13
2023-03-18T15:55:33.932Z,100622.91
2023-03-18T15:58:03.898Z,100613.41
2023-03-18T16:00:32.434Z,100608.34
2023-03-18T16:02:59.688Z,100610.41
2023-03-18T16:05:28.990Z,100612.31
2023-03-18T16:07:55.891Z,100606.19
2023-03-18T16:10:25.247Z,100606.28
2023-03-18T16:12:54.845Z,100604.19
2023-03-18T16:15:23.997Z,100604.84
2023-03-18T16:17:55.577Z,100607.41
2023-03-18T16:20:24.802Z,100612.88
2023-03-18T16:22:51.999Z,100611.78
2023-03-18T16:25:18.863Z,100605.16
2023-03-18T16:27:48.649Z,100611.97
2023-03-18T16:30:25.952Z,100621.28
2023-03-18T16:32:53.845Z,100620.97
2023-03-18T16:35:24.450Z,100625.03
2023-03-18T16:37:51.804Z,100634.56
2023-03-18T16:40:22.137Z,100638.84
2023-03-18T16:42:49.462Z,100637.66
2023-03-18T16:45:22.192Z,100635.03
2023-03-18T16:47:51.009Z,100634.47
2023-03-18T16:50:28.976Z,100626.97
2023-03-18T16:52:55.604Z,100632.03
2023-03-18T16:55:22.414Z,100634.41
2023-03-18T16:58:02.709Z,100634.31
2023-03-18T17:00:32.090Z,100634.50
2023-03-18T17:03:00.034Z,100630.53
2023-03-18T17:05:28.960Z,100636.72
2023-03-18T17:07:55.870Z,100640.97
2023-03-18T17:10:24.785Z,100626.09
2023-03-18T17:12:55.448Z,100623.25
2023-03-18T17:15:27.646Z,100632.47
2023-03-18T17:17:58.071Z,100636.69
2023-03-18T17:20:26.968Z,100637.69
2023-03-18T17:22:54.181Z,100629.38
2023-03-18T17:25:21.454Z,100631.97
2023-03-18T17:27:54.628Z,100634.91
2023-03-18T17:30:33.010Z,100639.69
2023-03-18T17:33:00.548Z,100644.81
2023-03-18T17:35:28.547Z,100640.28
2023-03-18T17:37:55.529Z,100651.06
2023-03-18T17:40:23.330Z,100638.38
2023-03-18T17:42:51.685Z,100646.34
2023-03-18T17:45:28.576Z,100652.31
2023-03-18T17:48:13.546Z,100646.13
2023-03-18T17:50:41.319Z,100657.41
2023-03-18T17:53:24.193Z,100663.53
2023-03-18T17:55:50.676Z,100662.53
2023-03-18T17:58:18.473Z,100656.41
2023-03-18T18:00:46.776Z,100647.25
2023-03-18T18:03:27.254Z,100660.50
2023-03-18T18:05:55.892Z,100662.00
2023-03-18T18:08:25.545Z,100666.97
2023-03-18T18:11:03.051Z,100671.66
2023-03-18T18:13:29.607Z,100660.81
2023-03-18T18:15:56.009Z,100666.84
2023-03-18T18:18:25.370Z,100673.16
2023-03-18T18:20:58.095Z,100672.66
2023-03-18T18:23:33.310Z,100662.94
2023-03-18T18:26:02.978Z,100655.34
2023-03-18T18:28:33.114Z,100658.13
2023-03-18T18:31:01.388Z,100660.63
2023-03-18T18:33:30.291Z,100654.84
2023-03-18T18:35:56.952Z,100655.16
2023-03-18T18:38:23.795Z,100658.75
2023-03-18T18:40:51.291Z,100648.94
2023-03-18T18:43:17.717Z,100651.13
2023-03-18T18:45:44.126Z,100644.06
2023-03-18T18:48:35.211Z,100646.50
2023-03-18T18:51:04.149Z,100644.88
2023-03-18T18:53:36.553Z,100654.13
2023-03-18T18:56:20.343Z,100646.78
2023-03-18T18:58:48.227Z,100658.75
2023-03-18T19:01:15.335Z,100662.25
2023-03-18T19:03:42.639Z,100663.94
2023-03-18T19:06:30.308Z,100666.72
2023-03-18T19:08:59.740Z,100667.56
2023-03-18T19:11:27.311Z,100671.94
2023-03-18T19:13:55.196Z,100684.50
2023-03-18T19:16:31.279Z,100714.69
2023-03-18T19:18:57.846Z,100773.72
2023-03-18T19:21:24.484Z,100769.97
2023-03-18T19:23:51.107Z,100790.41
2023-03-18T19:26:18.424Z,100786.88
2023-03-18T19:28:57.559Z,100779.03
2023-03-18T19:31:27.332Z,100778.34
2023-03-18T19:33:54.625Z,100775.38
2023-03-18T19:36:27.374Z,100777.69
2023-03-18T19:38:55.980Z,100769.28
2023-03-18T19:41:22.476Z,100758.97
2023-03-18T19:43:49.794Z,100745.38
2023-03-18T19:46:37.117Z,100748.94
2023-03-18T19:49:12.426Z,100757.34
2023-03-18T19:51:38.854Z,100749.22
2023-03-18T19:54:21.175Z,100736.66
2023-03-18T19:56:48.981Z,100742.97
2023-03-18T19:59:21.236Z,100751.66
2023-03-18T20:01:47.720Z,100747.56
2023-03-18T20:04:16.079Z,100733.44
2023-03-18T20:06:42.986Z,100731.81
2023-03-18T20:09:09.742Z,100739.94
2023-03-18T20:11:36.317Z,100740.50
2023-03-18T20:14:02.723Z,100747.84
2023-03-18T20:16:29.470Z,100741.59
2023-03-18T20:18:56.013Z,100745.94
2023-03-18T20:21:29.519Z,100746.19
2023-03-18T20:24:02.780Z,100751.63
2023-03-18T20:26:29.323Z,100751.09
2023-03-18T20:28:58.344Z,100752.72
2023-03-18T20:31:24.790Z,100750.28
2023-03-18T20:33:51.217Z,100747.56
2023-03-18T20:36:19.503Z,100746.19
2023-03-18T20:38:48.799Z,100753.53
2023-03-18T20:41:19.965Z,100760.88
2023-03-18T20:43:50.005Z,100754.91
2023-03-18T20:46:17.117Z,100743.22
2023-03-18T20:48:44.316Z,100748.66
2023-03-18T20:51:20.864Z,100745.94
2023-03-18T20:53:48.268Z,100746.47
2023-03-18T20:56:15.443Z,100747.56
2023-03-18T20:58:42.222Z,100751.38
2023-03-18T21:01:12.637Z,100752.47
2023-03-18T21:03:39.749Z,100755.44
2023-03-18T21:06:06.875Z,100749.19
2023-03-18T21:08:33.900Z,100747.56
2023-03-18T21:11:02.102Z,100749.47
2023-03-18T21:13:39.446Z,100748.66
2023-03-18T21:16:14.357Z,100747.03
2023-03-18T21:18:43.619Z,100750.03
2023-03-18T21:21:23.653Z,100747.84
2023-03-18T21:23:51.862Z,100756.53
2023-03-18T21:26:18.607Z,100754.09
2023-03-18T21:28:45.239Z,100752.19
2023-03-18T21:31:34.535Z,100751.66
2023-03-18T21:34:01.036Z,100754.63
2023-03-18T21:36:27.832Z,100747.00
2023-03-18T21:38:54.320Z,100751.09
2023-03-18T21:41:24.154Z,100739.94
2023-03-18T21:43:50.989Z,100737.25
2023-03-18T21:46:20.546Z,100731.28
2023-03-18T21:48:47.309Z,100729.38
2023-03-18T21:51:37.652Z,100732.09
2023-03-18T21:54:06.296Z,100741.84
2023-03-18T21:56:32.827Z,100739.97
2023-03-18T21:58:59.388Z,100736.16
2023-03-18T22:01:32.014Z,100737.78
2023-03-18T22:03:59.398Z,100731.28
2023-03-18T22:06:25.906Z,100732.63
2023-03-18T22:08:52.418Z,100723.69
2023-03-18T22:11:21.966Z,100729.91
2023-03-18T22:13:49.462Z,100722.31
2023-03-18T22:16:17.800Z,100728.28
2023-03-18T22:18:45.809Z,100728.53
2023-03-18T22:21:19.106Z,100726.41
2023-03-18T22:23:45.625Z,100724.47
2023-03-18T22:26:15.604Z,100721.22
2023-03-18T22:28:42.473Z,100726.41
2023-03-18T22:31:36.078Z,100718.25
2023-03-18T22:34:03.399Z,100714.97
2023-03-18T22:36:29.834Z,100716.06
2023-03-18T22:38:56.423Z,100707.66
2023-03-18T22:41:29.134Z,100717.13
2023-03-18T22:43:57.401Z,100719.31
2023-03-18T22:46:23.894Z,100714.97
2023-03-18T22:48:50.399Z,100709.00
2023-03-18T22:51:27.411Z,100715.50
2023-03-18T22:53:54.315Z,100722.31
2023-03-18T22:56:22.168Z,100715.22
2023-03-18T22:58:49.210Z,100714.16
2023-03-18T23:01:18.516Z,100719.31
2023-03-18T23:03:47.278Z,100714.16
2023-03-18T23:06:17.525Z,100722.31
2023-03-18T23:08:45.597Z,100717.69
2023-03-18T23:11:13.386Z,100726.09
2023-03-18T23:13:42.739Z,100711.44
2023-03-18T23:16:15.735Z,100729.06
2023-03-18T23:18:42.717Z,100722.81
2023-03-18T23:21:16.810Z,100730.16
2023-03-18T23:23:43.350Z,100727.72
2023-03-18T23:26:10.003Z,100720.91
2023-03-18T23:28:44.150Z,100720.13
2023-03-18T23:31:12.693Z,100709.53
2023-03-18T23:33:39.178Z,100714.69
2023-03-18T23:36:05.931Z,100714.41
2023-03-18T23:38:32.411Z,100711.44
2023-03-18T23:40:58.860Z,100713.56
2023-03-18T23:43:25.667Z,100714.94
2023-03-18T23:45:52.312Z,100714.09
2023-03-18T23:48:18.819Z,100721.16
2023-03-18T23:50:46.024Z,100724.69
2023-03-18T23:53:12.671Z,100715.72
2023-03-18T23:55:39.154Z,100713.81
2023-03-18T23:58:05.715Z,100723.31
